sensor_id;sensor_type;location;lat;lon;timestamp;temperature;humidity
13223;DHT22;6676;45.192;5.722;2023-04-19T00:00:43;11.20;99.90
13223;DHT22;6676;45.192;5.722;2023-04-19T00:03:34;11.10;99.90
13223;DHT22;6676;45.192;5.722;2023-04-19T00:09:04;11.00;99.90
13223;DHT22;6676;45.192;5.722;2023-04-19T00:11:56;11.00;99.90
13223;DHT22;6676;45.192;5.722;2023-04-19T00:14:47;10.90;99.90
13223;DHT22;6676;45.192;5.722;2023-04-19T00:17:39;10.90;99.90
13223;DHT22;6676;45.192;5.722;2023-04-19T00:20:31;10.90;99.90
13223;DHT22;6676;45.192;5.722;2023-04-19T00:23:23;11.00;99.90
13223;DHT22;6676;45.192;5.722;2023-04-19T00:28:54;11.00;99.90
13223;DHT22;6676;45.192;5.722;2023-04-19T00:31:45;11.10;99.90
13223;DHT22;6676;45.192;5.722;2023-04-19T00:34:37;11.10;99.90
13223;DHT22;6676;45.192;5.722;2023-04-19T00:40:09;10.90;99.90
13223;DHT22;6676;45.192;5.722;2023-04-19T00:45:40;10.80;99.90
13223;DHT22;6676;45.192;5.722;2023-04-19T00:51:11;10.80;99.90
13223;DHT22;6676;45.192;5.722;2023-04-19T00:54:03;10.80;99.90
13223;DHT22;6676;45.192;5.722;2023-04-19T00:59:35;10.70;99.90
13223;DHT22;6676;45.192;5.722;2023-04-19T01:02:26;10.70;99.90
13223;DHT22;6676;45.192;5.722;2023-04-19T01:05:18;10.70;99.90
13223;DHT22;6676;45.192;5.722;2023-04-19T01:08:10;10.70;99.90
13223;DHT22;6676;45.192;5.722;2023-04-19T01:13:41;10.70;99.90
13223;DHT22;6676;45.192;5.722;2023-04-19T01:19:11;10.60;99.90
13223;DHT22;6676;45.192;5.722;2023-04-19T01:24:42;10.60;99.90
13223;DHT22;6676;45.192;5.722;2023-04-19T01:27:34;10.70;99.90
13223;DHT22;6676;45.192;5.722;2023-04-19T01:30:25;10.60;99.90
13223;DHT22;6676;45.192;5.722;2023-04-19T01:35:57;10.50;99.90
13223;DHT22;6676;45.192;5.722;2023-04-19T01:41:30;10.40;99.90
13223;DHT22;6676;45.192;5.722;2023-04-19T01:44:21;10.40;99.90
13223;DHT22;6676;45.192;5.722;2023-04-19T01:47:13;10.40;99.90
13223;DHT22;6676;45.192;5.722;2023-04-19T01:50:06;10.40;99.90
13223;DHT22;6676;45.192;5.722;2023-04-19T01:52:57;10.30;99.90
13223;DHT22;6676;45.192;5.722;2023-04-19T01:58:27;10.40;99.90
13223;DHT22;6676;45.192;5.722;2023-04-19T02:01:18;10.30;99.90
13223;DHT22;6676;45.192;5.722;2023-04-19T02:04:10;10.30;99.90
13223;DHT22;6676;45.192;5.722;2023-04-19T02:07:01;10.30;99.90
13223;DHT22;6676;45.192;5.722;2023-04-19T02:09:53;10.30;99.90
13223;DHT22;6676;45.192;5.722;2023-04-19T02:12:46;10.30;99.90
13223;DHT22;6676;45.192;5.722;2023-04-19T02:15:37;10.20;99.90
13223;DHT22;6676;45.192;5.722;2023-04-19T02:18:29;10.30;99.90
13223;DHT22;6676;45.192;5.722;2023-04-19T02:24:00;10.30;99.90
13223;DHT22;6676;45.192;5.722;2023-04-19T02:29:31;10.30;99.90
13223;DHT22;6676;45.192;5.722;2023-04-19T02:32:22;10.30;99.90
13223;DHT22;6676;45.192;5.722;2023-04-19T02:35:13;10.20;99.90
13223;DHT22;6676;45.192;5.722;2023-04-19T02:40:44;10.20;99.90
13223;DHT22;6676;45.192;5.722;2023-04-19T02:43:35;10.10;99.90
13223;DHT22;6676;45.192;5.722;2023-04-19T02:46:26;10.10;99.90
13223;DHT22;6676;45.192;5.722;2023-04-19T02:49:18;10.10;99.90
13223;DHT22;6676;45.192;5.722;2023-04-19T02:54:48;10.10;99.90
13223;DHT22;6676;45.192;5.722;2023-04-19T02:57:39;10.10;99.90
13223;DHT22;6676;45.192;5.722;2023-04-19T03:03:09;10.10;99.90
13223;DHT22;6676;45.192;5.722;2023-04-19T03:06:03;10.10;99.90
13223;DHT22;6676;45.192;5.722;2023-04-19T03:08:55;10.10;99.90
13223;DHT22;6676;45.192;5.722;2023-04-19T03:11:48;10.00;99.90
13223;DHT22;6676;45.192;5.722;2023-04-19T03:17:18;9.90;99.90
13223;DHT22;6676;45.192;5.722;2023-04-19T03:20:11;9.80;99.90
13223;DHT22;6676;45.192;5.722;2023-04-19T03:23:02;9.80;99.90
13223;DHT22;6676;45.192;5.722;2023-04-19T03:28:36;9.80;99.90
13223;DHT22;6676;45.192;5.722;2023-04-19T03:31:31;9.80;99.90
13223;DHT22;6676;45.192;5.722;2023-04-19T03:34:23;9.70;99.90
13223;DHT22;6676;45.192;5.722;2023-04-19T03:39:55;9.80;99.90
13223;DHT22;6676;45.192;5.722;2023-04-19T03:42:54;9.80;99.90
13223;DHT22;6676;45.192;5.722;2023-04-19T03:45:43;9.80;99.90
13223;DHT22;6676;45.192;5.722;2023-04-19T03:48:35;9.70;99.90
13223;DHT22;6676;45.192;5.722;2023-04-19T03:54:05;9.60;99.90
13223;DHT22;6676;45.192;5.722;2023-04-19T03:59:35;9.60;99.90
13223;DHT22;6676;45.192;5.722;2023-04-19T04:02:27;9.60;99.90
13223;DHT22;6676;45.192;5.722;2023-04-19T04:05:20;9.60;99.90
13223;DHT22;6676;45.192;5.722;2023-04-19T04:10:54;9.60;99.90
13223;DHT22;6676;45.192;5.722;2023-04-19T04:13:46;9.60;99.90
13223;DHT22;6676;45.192;5.722;2023-04-19T04:16:40;9.50;99.90
13223;DHT22;6676;45.192;5.722;2023-04-19T04:22:14;9.40;99.90
13223;DHT22;6676;45.192;5.722;2023-04-19T04:25:08;9.40;99.90
13223;DHT22;6676;45.192;5.722;2023-04-19T04:30:44;9.30;99.90
13223;DHT22;6676;45.192;5.722;2023-04-19T04:33:36;9.30;99.90
13223;DHT22;6676;45.192;5.722;2023-04-19T04:39:14;9.40;99.90
13223;DHT22;6676;45.192;5.722;2023-04-19T04:42:05;9.60;99.90
13223;DHT22;6676;45.192;5.722;2023-04-19T04:44:58;9.60;99.90
13223;DHT22;6676;45.192;5.722;2023-04-19T04:47:51;9.50;99.90
13223;DHT22;6676;45.192;5.722;2023-04-19T04:50:43;9.40;99.90
13223;DHT22;6676;45.192;5.722;2023-04-19T04:53:34;9.50;99.90
13223;DHT22;6676;45.192;5.722;2023-04-19T04:59:10;9.40;99.90
13223;DHT22;6676;45.192;5.722;2023-04-19T05:02:03;9.40;99.90
13223;DHT22;6676;45.192;5.722;2023-04-19T05:04:55;9.40;99.90
13223;DHT22;6676;45.192;5.722;2023-04-19T05:07:48;9.40;99.90
13223;DHT22;6676;45.192;5.722;2023-04-19T05:10:43;9.40;99.90
13223;DHT22;6676;45.192;5.722;2023-04-19T05:13:37;9.40;99.90
13223;DHT22;6676;45.192;5.722;2023-04-19T05:19:22;9.50;99.90
13223;DHT22;6676;45.192;5.722;2023-04-19T05:22:15;9.50;99.90
13223;DHT22;6676;45.192;5.722;2023-04-19T05:25:09;9.50;99.90
13223;DHT22;6676;45.192;5.722;2023-04-19T05:28:07;9.50;99.90
13223;DHT22;6676;45.192;5.722;2023-04-19T05:33:41;9.60;99.90
13223;DHT22;6676;45.192;5.722;2023-04-19T05:36:32;9.60;99.90
13223;DHT22;6676;45.192;5.722;2023-04-19T05:39:24;9.60;99.90
13223;DHT22;6676;45.192;5.722;2023-04-19T05:42:16;9.50;99.90
13223;DHT22;6676;45.192;5.722;2023-04-19T05:45:10;9.60;99.90
13223;DHT22;6676;45.192;5.722;2023-04-19T05:48:02;9.60;99.90
13223;DHT22;6676;45.192;5.722;2023-04-19T05:51:10;9.60;99.90
13223;DHT22;6676;45.192;5.722;2023-04-19T05:54:05;9.70;99.90
13223;DHT22;6676;45.192;5.722;2023-04-19T05:59:43;9.70;99.90
13223;DHT22;6676;45.192;5.722;2023-04-19T06:02:39;9.70;99.90
13223;DHT22;6676;45.192;5.722;2023-04-19T06:05:34;9.70;99.90
13223;DHT22;6676;45.192;5.722;2023-04-19T06:08:26;9.80;99.90
13223;DHT22;6676;45.192;5.722;2023-04-19T06:11:18;9.80;99.90
13223;DHT22;6676;45.192;5.722;2023-04-19T06:14:11;9.80;99.90
13223;DHT22;6676;45.192;5.722;2023-04-19T06:17:04;9.80;99.90
13223;DHT22;6676;45.192;5.722;2023-04-19T06:22:37;9.90;99.90
13223;DHT22;6676;45.192;5.722;2023-04-19T06:25:34;10.00;99.90
13223;DHT22;6676;45.192;5.722;2023-04-19T06:28:26;9.90;99.90
13223;DHT22;6676;45.192;5.722;2023-04-19T06:31:17;9.90;99.90
13223;DHT22;6676;45.192;5.722;2023-04-19T06:34:10;10.00;99.90
13223;DHT22;6676;45.192;5.722;2023-04-19T06:37:02;10.10;99.90
13223;DHT22;6676;45.192;5.722;2023-04-19T06:42:41;10.10;99.90
13223;DHT22;6676;45.192;5.722;2023-04-19T06:45:32;10.20;99.90
13223;DHT22;6676;45.192;5.722;2023-04-19T06:51:06;10.30;99.90
13223;DHT22;6676;45.192;5.722;2023-04-19T06:56:43;10.40;99.90
13223;DHT22;6676;45.192;5.722;2023-04-19T06:59:35;10.60;99.90
13223;DHT22;6676;45.192;5.722;2023-04-19T07:02:28;10.60;99.90
13223;DHT22;6676;45.192;5.722;2023-04-19T07:05:20;10.70;99.90
13223;DHT22;6676;45.192;5.722;2023-04-19T07:08:11;10.80;99.90
13223;DHT22;6676;45.192;5.722;2023-04-19T07:13:41;10.90;99.90
13223;DHT22;6676;45.192;5.722;2023-04-19T07:16:32;10.90;99.90
13223;DHT22;6676;45.192;5.722;2023-04-19T07:19:24;11.00;99.90
13223;DHT22;6676;45.192;5.722;2023-04-19T07:24:56;11.20;99.90
13223;DHT22;6676;45.192;5.722;2023-04-19T07:30:29;11.30;99.90
13223;DHT22;6676;45.192;5.722;2023-04-19T07:33:21;11.40;99.90
13223;DHT22;6676;45.192;5.722;2023-04-19T07:36:15;11.60;99.90
13223;DHT22;6676;45.192;5.722;2023-04-19T07:41:58;11.80;99.90
13223;DHT22;6676;45.192;5.722;2023-04-19T07:44:50;11.90;99.90
13223;DHT22;6676;45.192;5.722;2023-04-19T07:47:42;11.90;99.90
13223;DHT22;6676;45.192;5.722;2023-04-19T07:50:33;12.00;99.90
13223;DHT22;6676;45.192;5.722;2023-04-19T07:53:25;12.20;99.90
13223;DHT22;6676;45.192;5.722;2023-04-19T07:56:16;12.30;99.90
13223;DHT22;6676;45.192;5.722;2023-04-19T07:59:09;12.30;99.90
13223;DHT22;6676;45.192;5.722;2023-04-19T08:02:01;12.40;99.90
13223;DHT22;6676;45.192;5.722;2023-04-19T08:04:52;12.50;99.90
13223;DHT22;6676;45.192;5.722;2023-04-19T08:10:23;12.70;99.90
13223;DHT22;6676;45.192;5.722;2023-04-19T08:13:17;12.70;99.90
13223;DHT22;6676;45.192;5.722;2023-04-19T08:18:47;12.90;99.90
13223;DHT22;6676;45.192;5.722;2023-04-19T08:21:41;12.90;99.90
13223;DHT22;6676;45.192;5.722;2023-04-19T08:27:13;13.10;99.90
13223;DHT22;6676;45.192;5.722;2023-04-19T08:30:08;13.20;99.90
13223;DHT22;6676;45.192;5.722;2023-04-19T08:33:00;13.30;99.90
13223;DHT22;6676;45.192;5.722;2023-04-19T08:35:52;13.40;99.90
13223;DHT22;6676;45.192;5.722;2023-04-19T08:38:44;13.40;99.90
13223;DHT22;6676;45.192;5.722;2023-04-19T08:41:40;13.50;99.90
13223;DHT22;6676;45.192;5.722;2023-04-19T08:44:34;13.60;99.90
13223;DHT22;6676;45.192;5.722;2023-04-19T08:47:33;13.70;99.90
13223;DHT22;6676;45.192;5.722;2023-04-19T08:50:27;13.70;99.90
13223;DHT22;6676;45.192;5.722;2023-04-19T08:53:21;13.80;99.90
13223;DHT22;6676;45.192;5.722;2023-04-19T08:58:54;14.00;99.90
13223;DHT22;6676;45.192;5.722;2023-04-19T09:01:47;14.10;99.90
13223;DHT22;6676;45.192;5.722;2023-04-19T09:04:39;14.20;99.90
13223;DHT22;6676;45.192;5.722;2023-04-19T09:07:32;14.30;99.90
13223;DHT22;6676;45.192;5.722;2023-04-19T09:10:24;14.40;99.90
13223;DHT22;6676;45.192;5.722;2023-04-19T09:13:17;14.40;99.90
13223;DHT22;6676;45.192;5.722;2023-04-19T09:18:57;14.60;99.90
13223;DHT22;6676;45.192;5.722;2023-04-19T09:21:53;14.60;99.90
13223;DHT22;6676;45.192;5.722;2023-04-19T09:24:45;14.70;99.90
13223;DHT22;6676;45.192;5.722;2023-04-19T09:30:30;14.90;99.90
13223;DHT22;6676;45.192;5.722;2023-04-19T09:33:33;15.00;99.90
13223;DHT22;6676;45.192;5.722;2023-04-19T09:39:11;15.20;99.90
13223;DHT22;6676;45.192;5.722;2023-04-19T09:44:57;15.40;99.90
13223;DHT22;6676;45.192;5.722;2023-04-19T09:48:02;15.50;99.90
13223;DHT22;6676;45.192;5.722;2023-04-19T09:50:56;15.60;99.90
13223;DHT22;6676;45.192;5.722;2023-04-19T09:53:52;15.70;99.90
13223;DHT22;6676;45.192;5.722;2023-04-19T10:02:01;15.90;99.90
13223;DHT22;6676;45.192;5.722;2023-04-19T10:04:56;16.00;99.90
13223;DHT22;6676;45.192;5.722;2023-04-19T10:07:49;16.10;99.90
13223;DHT22;6676;45.192;5.722;2023-04-19T10:10:43;16.20;99.90
13223;DHT22;6676;45.192;5.722;2023-04-19T10:13:37;16.30;99.90
13223;DHT22;6676;45.192;5.722;2023-04-19T10:16:30;16.40;99.90
13223;DHT22;6676;45.192;5.722;2023-04-19T10:19:22;16.50;99.90
13223;DHT22;6676;45.192;5.722;2023-04-19T10:22:15;16.60;99.90
13223;DHT22;6676;45.192;5.722;2023-04-19T10:25:13;16.70;99.90
13223;DHT22;6676;45.192;5.722;2023-04-19T10:28:05;16.80;99.90
13223;DHT22;6676;45.192;5.722;2023-04-19T10:30:58;16.80;99.90
13223;DHT22;6676;45.192;5.722;2023-04-19T10:33:51;16.80;99.90
13223;DHT22;6676;45.192;5.722;2023-04-19T10:36:45;16.80;99.90
13223;DHT22;6676;45.192;5.722;2023-04-19T10:39:42;16.90;99.90
13223;DHT22;6676;45.192;5.722;2023-04-19T10:46:00;17.00;99.90
13223;DHT22;6676;45.192;5.722;2023-04-19T10:48:56;17.10;99.90
13223;DHT22;6676;45.192;5.722;2023-04-19T10:51:51;17.30;99.90
13223;DHT22;6676;45.192;5.722;2023-04-19T10:54:54;17.50;99.90
13223;DHT22;6676;45.192;5.722;2023-04-19T10:58:03;17.50;99.90
13223;DHT22;6676;45.192;5.722;2023-04-19T11:01:31;17.70;99.90
13223;DHT22;6676;45.192;5.722;2023-04-19T11:04:56;17.80;99.90
13223;DHT22;6676;45.192;5.722;2023-04-19T11:07:23;17.80;99.90
13223;DHT22;6676;45.192;5.722;2023-04-19T11:10:26;18.00;99.90
13223;DHT22;6676;45.192;5.722;2023-04-19T11:13:15;18.20;99.90
13223;DHT22;6676;45.192;5.722;2023-04-19T11:16:09;18.40;99.90
13223;DHT22;6676;45.192;5.722;2023-04-19T11:19:01;18.50;99.90
13223;DHT22;6676;45.192;5.722;2023-04-19T11:21:52;18.70;99.90
13223;DHT22;6676;45.192;5.722;2023-04-19T11:24:49;18.90;99.90
13223;DHT22;6676;45.192;5.722;2023-04-19T11:27:41;18.90;99.90
13223;DHT22;6676;45.192;5.722;2023-04-19T11:30:33;19.00;99.90
13223;DHT22;6676;45.192;5.722;2023-04-19T11:33:25;19.00;99.90
13223;DHT22;6676;45.192;5.722;2023-04-19T11:39:01;19.00;99.90
13223;DHT22;6676;45.192;5.722;2023-04-19T11:41:53;19.10;99.90
13223;DHT22;6676;45.192;5.722;2023-04-19T11:44:50;19.00;99.90
13223;DHT22;6676;45.192;5.722;2023-04-19T11:47:48;19.10;99.90
13223;DHT22;6676;45.192;5.722;2023-04-19T11:50:42;19.20;99.90
13223;DHT22;6676;45.192;5.722;2023-04-19T11:56:13;19.30;99.90
13223;DHT22;6676;45.192;5.722;2023-04-19T11:59:07;19.40;99.90
13223;DHT22;6676;45.192;5.722;2023-04-19T12:02:06;19.60;99.90
13223;DHT22;6676;45.192;5.722;2023-04-19T12:05:08;19.70;99.90
13223;DHT22;6676;45.192;5.722;2023-04-19T12:08:02;19.90;99.90
13223;DHT22;6676;45.192;5.722;2023-04-19T12:10:56;19.80;99.90
13223;DHT22;6676;45.192;5.722;2023-04-19T12:14:07;19.90;99.90
13223;DHT22;6676;45.192;5.722;2023-04-19T12:17:07;19.80;99.90
13223;DHT22;6676;45.192;5.722;2023-04-19T12:19:59;19.80;99.90
13223;DHT22;6676;45.192;5.722;2023-04-19T12:22:53;19.80;99.90
13223;DHT22;6676;45.192;5.722;2023-04-19T12:25:46;19.90;99.90
13223;DHT22;6676;45.192;5.722;2023-04-19T12:28:38;20.00;99.90
13223;DHT22;6676;45.192;5.722;2023-04-19T12:31:30;20.10;99.90
13223;DHT22;6676;45.192;5.722;2023-04-19T12:34:22;20.30;99.90
13223;DHT22;6676;45.192;5.722;2023-04-19T12:37:14;20.40;99.90
13223;DHT22;6676;45.192;5.722;2023-04-19T12:40:07;20.50;99.90
13223;DHT22;6676;45.192;5.722;2023-04-19T12:42:59;20.50;99.90
13223;DHT22;6676;45.192;5.722;2023-04-19T12:45:53;20.60;99.00
13223;DHT22;6676;45.192;5.722;2023-04-19T12:48:47;20.70;97.50
13223;DHT22;6676;45.192;5.722;2023-04-19T12:51:38;20.80;98.00
13223;DHT22;6676;45.192;5.722;2023-04-19T12:54:31;20.80;96.70
13223;DHT22;6676;45.192;5.722;2023-04-19T12:57:23;20.70;95.90
13223;DHT22;6676;45.192;5.722;2023-04-19T13:00:15;20.70;95.10
13223;DHT22;6676;45.192;5.722;2023-04-19T13:03:07;20.80;95.70
13223;DHT22;6676;45.192;5.722;2023-04-19T13:05:59;20.70;94.30
13223;DHT22;6676;45.192;5.722;2023-04-19T13:08:51;20.90;94.80
13223;DHT22;6676;45.192;5.722;2023-04-19T13:11:47;21.10;94.80
13223;DHT22;6676;45.192;5.722;2023-04-19T13:14:38;21.10;92.10
13223;DHT22;6676;45.192;5.722;2023-04-19T13:17:30;21.10;87.80
13223;DHT22;6676;45.192;5.722;2023-04-19T13:20:22;21.00;86.10
13223;DHT22;6676;45.192;5.722;2023-04-19T13:23:13;21.20;91.50
13223;DHT22;6676;45.192;5.722;2023-04-19T13:26:06;21.40;90.50
13223;DHT22;6676;45.192;5.722;2023-04-19T13:28:57;21.30;90.60
13223;DHT22;6676;45.192;5.722;2023-04-19T13:31:49;21.40;90.70
13223;DHT22;6676;45.192;5.722;2023-04-19T13:34:41;21.40;91.00
13223;DHT22;6676;45.192;5.722;2023-04-19T13:37:32;21.50;87.50
13223;DHT22;6676;45.192;5.722;2023-04-19T13:40:23;21.50;90.20
13223;DHT22;6676;45.192;5.722;2023-04-19T13:43:15;21.60;89.50
13223;DHT22;6676;45.192;5.722;2023-04-19T13:46:12;21.80;91.10
13223;DHT22;6676;45.192;5.722;2023-04-19T13:49:03;22.00;90.00
13223;DHT22;6676;45.192;5.722;2023-04-19T13:51:57;22.10;91.00
13223;DHT22;6676;45.192;5.722;2023-04-19T13:54:49;22.20;92.20
13223;DHT22;6676;45.192;5.722;2023-04-19T13:57:41;22.30;92.70
13223;DHT22;6676;45.192;5.722;2023-04-19T14:00:33;22.20;89.70
13223;DHT22;6676;45.192;5.722;2023-04-19T14:03:24;22.50;88.30
13223;DHT22;6676;45.192;5.722;2023-04-19T14:06:17;22.30;91.00
13223;DHT22;6676;45.192;5.722;2023-04-19T14:09:09;22.50;87.90
13223;DHT22;6676;45.192;5.722;2023-04-19T14:12:00;22.80;87.30
13223;DHT22;6676;45.192;5.722;2023-04-19T14:14:53;23.20;86.30
13223;DHT22;6676;45.192;5.722;2023-04-19T14:17:45;23.40;86.10
13223;DHT22;6676;45.192;5.722;2023-04-19T14:20:36;23.70;86.90
13223;DHT22;6676;45.192;5.722;2023-04-19T14:23:28;23.40;87.30
13223;DHT22;6676;45.192;5.722;2023-04-19T14:26:20;23.70;87.30
13223;DHT22;6676;45.192;5.722;2023-04-19T14:29:15;24.00;86.00
13223;DHT22;6676;45.192;5.722;2023-04-19T14:32:07;23.50;81.70
13223;DHT22;6676;45.192;5.722;2023-04-19T14:35:00;23.60;82.50
13223;DHT22;6676;45.192;5.722;2023-04-19T14:37:52;24.10;83.00
13223;DHT22;6676;45.192;5.722;2023-04-19T14:40:44;24.60;79.00
13223;DHT22;6676;45.192;5.722;2023-04-19T14:43:36;25.10;79.30
13223;DHT22;6676;45.192;5.722;2023-04-19T14:46:28;24.90;82.30
13223;DHT22;6676;45.192;5.722;2023-04-19T14:49:20;25.20;80.50
13223;DHT22;6676;45.192;5.722;2023-04-19T14:52:12;25.20;77.40
13223;DHT22;6676;45.192;5.722;2023-04-19T14:55:08;25.40;79.00
13223;DHT22;6676;45.192;5.722;2023-04-19T14:58:00;25.70;80.90
13223;DHT22;6676;45.192;5.722;2023-04-19T15:00:52;25.30;78.80
13223;DHT22;6676;45.192;5.722;2023-04-19T15:03:44;24.90;77.40
13223;DHT22;6676;45.192;5.722;2023-04-19T15:06:35;24.90;77.20
13223;DHT22;6676;45.192;5.722;2023-04-19T15:09:27;24.90;76.80
13223;DHT22;6676;45.192;5.722;2023-04-19T15:12:19;24.70;77.30
13223;DHT22;6676;45.192;5.722;2023-04-19T15:15:11;24.30;76.60
13223;DHT22;6676;45.192;5.722;2023-04-19T15:18:03;24.80;76.40
13223;DHT22;6676;45.192;5.722;2023-04-19T15:20:55;25.60;74.90
13223;DHT22;6676;45.192;5.722;2023-04-19T15:23:47;25.40;75.10
13223;DHT22;6676;45.192;5.722;2023-04-19T15:26:38;25.60;75.80
13223;DHT22;6676;45.192;5.722;2023-04-19T15:29:31;25.60;77.20
13223;DHT22;6676;45.192;5.722;2023-04-19T15:32:23;26.00;75.80
13223;DHT22;6676;45.192;5.722;2023-04-19T15:35:14;25.90;73.10
13223;DHT22;6676;45.192;5.722;2023-04-19T15:38:06;25.70;73.60
13223;DHT22;6676;45.192;5.722;2023-04-19T15:40:58;24.70;74.30
13223;DHT22;6676;45.192;5.722;2023-04-19T15:43:50;25.00;74.80
13223;DHT22;6676;45.192;5.722;2023-04-19T15:46:42;25.30;72.90
13223;DHT22;6676;45.192;5.722;2023-04-19T15:49:33;25.20;73.00
13223;DHT22;6676;45.192;5.722;2023-04-19T15:52:25;25.50;72.10
13223;DHT22;6676;45.192;5.722;2023-04-19T15:58:06;24.00;73.60
13223;DHT22;6676;45.192;5.722;2023-04-19T16:00:58;23.30;76.10
13223;DHT22;6676;45.192;5.722;2023-04-19T16:03:49;23.80;76.40
13223;DHT22;6676;45.192;5.722;2023-04-19T16:06:41;25.20;74.10
13223;DHT22;6676;45.192;5.722;2023-04-19T16:09:32;25.30;70.30
13223;DHT22;6676;45.192;5.722;2023-04-19T16:12:23;25.30;68.50
13223;DHT22;6676;45.192;5.722;2023-04-19T16:15:15;25.30;69.60
13223;DHT22;6676;45.192;5.722;2023-04-19T16:18:06;25.90;68.80
13223;DHT22;6676;45.192;5.722;2023-04-19T16:20:58;26.00;67.40
13223;DHT22;6676;45.192;5.722;2023-04-19T16:23:50;26.10;67.20
13223;DHT22;6676;45.192;5.722;2023-04-19T16:26:41;26.10;66.90
13223;DHT22;6676;45.192;5.722;2023-04-19T16:29:33;26.20;66.70
13223;DHT22;6676;45.192;5.722;2023-04-19T16:32:24;26.40;66.50
13223;DHT22;6676;45.192;5.722;2023-04-19T16:35:16;26.20;65.50
13223;DHT22;6676;45.192;5.722;2023-04-19T16:38:08;25.70;66.60
13223;DHT22;6676;45.192;5.722;2023-04-19T16:40:59;25.80;67.20
13223;DHT22;6676;45.192;5.722;2023-04-19T16:43:54;26.00;67.30
13223;DHT22;6676;45.192;5.722;2023-04-19T16:46:46;26.10;67.40
13223;DHT22;6676;45.192;5.722;2023-04-19T16:49:42;25.60;67.10
13223;DHT22;6676;45.192;5.722;2023-04-19T16:52:36;25.30;68.20
13223;DHT22;6676;45.192;5.722;2023-04-19T16:55:28;25.20;69.00
13223;DHT22;6676;45.192;5.722;2023-04-19T16:58:19;25.20;69.10
13223;DHT22;6676;45.192;5.722;2023-04-19T17:01:11;24.60;70.40
13223;DHT22;6676;45.192;5.722;2023-04-19T17:04:03;24.10;71.80
13223;DHT22;6676;45.192;5.722;2023-04-19T17:06:54;23.70;72.70
13223;DHT22;6676;45.192;5.722;2023-04-19T17:09:46;23.30;74.10
13223;DHT22;6676;45.192;5.722;2023-04-19T17:12:37;23.20;75.30
13223;DHT22;6676;45.192;5.722;2023-04-19T17:15:29;23.00;75.70
13223;DHT22;6676;45.192;5.722;2023-04-19T17:18:20;22.90;76.00
13223;DHT22;6676;45.192;5.722;2023-04-19T17:21:12;22.90;76.70
13223;DHT22;6676;45.192;5.722;2023-04-19T17:24:07;22.80;76.90
13223;DHT22;6676;45.192;5.722;2023-04-19T17:26:58;22.90;76.80
13223;DHT22;6676;45.192;5.722;2023-04-19T17:29:50;22.90;76.80
13223;DHT22;6676;45.192;5.722;2023-04-19T17:32:42;22.80;77.40
13223;DHT22;6676;45.192;5.722;2023-04-19T17:35:36;22.60;77.60
13223;DHT22;6676;45.192;5.722;2023-04-19T17:38:27;22.50;78.90
13223;DHT22;6676;45.192;5.722;2023-04-19T17:41:19;21.80;80.20
13223;DHT22;6676;45.192;5.722;2023-04-19T17:44:11;21.20;82.10
13223;DHT22;6676;45.192;5.722;2023-04-19T17:47:05;20.80;83.30
13223;DHT22;6676;45.192;5.722;2023-04-19T17:50:04;20.40;84.30
13223;DHT22;6676;45.192;5.722;2023-04-19T17:55:37;20.10;86.90
13223;DHT22;6676;45.192;5.722;2023-04-19T17:58:29;20.00;87.70
13223;DHT22;6676;45.192;5.722;2023-04-19T18:01:21;19.80;88.60
13223;DHT22;6676;45.192;5.722;2023-04-19T18:04:12;19.60;90.10
13223;DHT22;6676;45.192;5.722;2023-04-19T18:07:06;19.60;90.50
13223;DHT22;6676;45.192;5.722;2023-04-19T18:09:57;19.50;90.90
13223;DHT22;6676;45.192;5.722;2023-04-19T18:15:45;19.30;91.10
13223;DHT22;6676;45.192;5.722;2023-04-19T18:18:37;19.40;90.10
13223;DHT22;6676;45.192;5.722;2023-04-19T18:21:28;19.40;89.80
13223;DHT22;6676;45.192;5.722;2023-04-19T18:24:20;19.40;89.60
13223;DHT22;6676;45.192;5.722;2023-04-19T18:27:12;19.40;88.40
13223;DHT22;6676;45.192;5.722;2023-04-19T18:30:05;19.30;89.40
13223;DHT22;6676;45.192;5.722;2023-04-19T18:32:58;19.20;89.50
13223;DHT22;6676;45.192;5.722;2023-04-19T18:35:50;19.00;90.10
13223;DHT22;6676;45.192;5.722;2023-04-19T18:38:42;18.90;90.60
13223;DHT22;6676;45.192;5.722;2023-04-19T18:44:14;18.80;91.20
13223;DHT22;6676;45.192;5.722;2023-04-19T18:47:07;18.60;91.20
13223;DHT22;6676;45.192;5.722;2023-04-19T18:49:59;18.50;91.90
13223;DHT22;6676;45.192;5.722;2023-04-19T18:52:53;18.40;92.10
13223;DHT22;6676;45.192;5.722;2023-04-19T18:58:29;18.10;91.90
13223;DHT22;6676;45.192;5.722;2023-04-19T19:01:21;18.00;92.00
13223;DHT22;6676;45.192;5.722;2023-04-19T19:04:17;18.00;92.30
13223;DHT22;6676;45.192;5.722;2023-04-19T19:07:10;18.00;92.40
13223;DHT22;6676;45.192;5.722;2023-04-19T19:10:03;18.10;93.00
13223;DHT22;6676;45.192;5.722;2023-04-19T19:12:56;17.90;92.60
13223;DHT22;6676;45.192;5.722;2023-04-19T19:15:48;17.90;92.70
13223;DHT22;6676;45.192;5.722;2023-04-19T19:18:41;18.00;92.70
13223;DHT22;6676;45.192;5.722;2023-04-19T19:21:32;17.90;93.20
13223;DHT22;6676;45.192;5.722;2023-04-19T19:24:24;17.60;93.90
13223;DHT22;6676;45.192;5.722;2023-04-19T19:27:17;17.40;94.20
13223;DHT22;6676;45.192;5.722;2023-04-19T19:30:11;17.40;94.60
13223;DHT22;6676;45.192;5.722;2023-04-19T19:35:46;17.10;95.90
13223;DHT22;6676;45.192;5.722;2023-04-19T19:43:58;17.00;97.10
13223;DHT22;6676;45.192;5.722;2023-04-19T19:49:37;16.90;97.00
13223;DHT22;6676;45.192;5.722;2023-04-19T19:52:55;16.90;97.50
13223;DHT22;6676;45.192;5.722;2023-04-19T19:55:46;16.90;97.90
13223;DHT22;6676;45.192;5.722;2023-04-19T19:58:37;16.80;98.40
13223;DHT22;6676;45.192;5.722;2023-04-19T20:01:31;16.70;98.60
13223;DHT22;6676;45.192;5.722;2023-04-19T20:04:22;16.60;99.10
13223;DHT22;6676;45.192;5.722;2023-04-19T20:07:14;16.60;99.90
13223;DHT22;6676;45.192;5.722;2023-04-19T20:10:12;16.50;99.90
13223;DHT22;6676;45.192;5.722;2023-04-19T20:13:03;16.40;99.90
13223;DHT22;6676;45.192;5.722;2023-04-19T20:18:36;16.20;99.90
13223;DHT22;6676;45.192;5.722;2023-04-19T20:21:27;16.00;99.90
13223;DHT22;6676;45.192;5.722;2023-04-19T20:24:18;16.00;99.90
13223;DHT22;6676;45.192;5.722;2023-04-19T20:27:10;16.00;99.90
13223;DHT22;6676;45.192;5.722;2023-04-19T20:30:02;15.90;99.90
13223;DHT22;6676;45.192;5.722;2023-04-19T20:32:55;15.90;99.90
13223;DHT22;6676;45.192;5.722;2023-04-19T20:35:46;15.80;99.90
13223;DHT22;6676;45.192;5.722;2023-04-19T20:38:37;15.70;99.90
13223;DHT22;6676;45.192;5.722;2023-04-19T20:41:30;15.70;99.90
13223;DHT22;6676;45.192;5.722;2023-04-19T20:44:27;15.60;99.90
13223;DHT22;6676;45.192;5.722;2023-04-19T20:47:18;15.60;99.90
13223;DHT22;6676;45.192;5.722;2023-04-19T20:50:10;15.50;99.90
13223;DHT22;6676;45.192;5.722;2023-04-19T20:53:02;15.50;99.90
13223;DHT22;6676;45.192;5.722;2023-04-19T20:55:53;15.40;99.90
13223;DHT22;6676;45.192;5.722;2023-04-19T20:58:45;15.30;99.90
13223;DHT22;6676;45.192;5.722;2023-04-19T21:01:36;15.30;99.90
13223;DHT22;6676;45.192;5.722;2023-04-19T21:04:28;15.30;99.90
13223;DHT22;6676;45.192;5.722;2023-04-19T21:07:19;15.30;99.90
13223;DHT22;6676;45.192;5.722;2023-04-19T21:10:11;15.20;99.90
13223;DHT22;6676;45.192;5.722;2023-04-19T21:13:02;15.20;99.90
13223;DHT22;6676;45.192;5.722;2023-04-19T21:15:54;15.10;99.90